Bellefountain, Indiana
Current Conditions -  °F | °C
As of 12:53 AM on Wednesday 26 Nov 2014 (Local Time) from KMIE Reporting Station
Overcast Overcast  
Wind Chill: 27°   Ceiling: 1200
Heat Index: 27°   Visibility: 10mi
Dew Point: 23°   Wind: 3mph
Humidity: 85%   Direction: 300°WNW
Pressure: 30.17"   Gusts: NA
Location:  40.4312°N, 85.0058°W
Report Text: KMIE 260553Z AUTO 30003KT 10SM OVC012 M03/M05 A3017 RMK AO2 SLP223 T10281050 11017 21028 58009
Loading
Personal Weather Stations






























Interactive Weather Map New forecast layout! Learn more

10-Day Weather Forecast

Advertisements
Track Severe Weather on mobile